createdAt,value
2018-07-28T00:00:54.629Z,22.80
2018-07-28T00:03:22.870Z,22.80
2018-07-28T00:05:57.161Z,22.80
2018-07-28T00:08:37.091Z,22.80
2018-07-28T00:11:05.489Z,22.70
2018-07-28T00:13:34.050Z,22.70
2018-07-28T00:16:04.502Z,22.70
2018-07-28T00:18:32.909Z,22.70
2018-07-28T00:21:01.262Z,22.70
2018-07-28T00:23:29.435Z,22.60
2018-07-28T00:26:10.790Z,22.60
2018-07-28T00:31:07.052Z,22.50
2018-07-28T00:33:39.508Z,22.40
2018-07-28T00:36:10.596Z,22.40
2018-07-28T00:38:48.985Z,22.30
2018-07-28T00:41:23.689Z,22.30
2018-07-28T00:43:54.752Z,22.20
2018-07-28T00:46:23.244Z,22.10
2018-07-28T00:48:51.541Z,22.10
2018-07-28T00:51:19.794Z,22.00
2018-07-28T00:53:52.987Z,22.00
2018-07-28T00:56:34.831Z,22.00
2018-07-28T00:59:03.154Z,22.00
2018-07-28T01:01:34.300Z,21.90
2018-07-28T01:04:05.274Z,21.90
2018-07-28T01:06:33.504Z,21.90
2018-07-28T01:09:06.519Z,21.80
2018-07-28T01:11:34.879Z,21.90
2018-07-28T01:14:05.179Z,21.80
2018-07-28T01:16:33.491Z,21.90
2018-07-28T01:19:04.618Z,21.90
2018-07-28T01:21:38.019Z,21.90
2018-07-28T01:24:09.356Z,21.90
2018-07-28T01:29:13.428Z,21.90
2018-07-28T01:31:54.094Z,21.90
2018-07-28T01:34:35.909Z,21.90
2018-07-28T01:37:04.330Z,21.90
2018-07-28T01:39:32.589Z,21.90
2018-07-28T01:42:05.925Z,21.90
2018-07-28T01:44:45.786Z,21.90
2018-07-28T01:47:14.335Z,22.00
2018-07-28T01:49:42.649Z,22.00
2018-07-28T01:54:47.200Z,22.00
2018-07-28T01:57:21.762Z,22.00
2018-07-28T01:59:53.195Z,22.00
2018-07-28T02:02:33.796Z,22.00
2018-07-28T02:05:02.502Z,21.90
2018-07-28T02:07:30.816Z,21.90
2018-07-28T02:09:58.994Z,21.90
2018-07-28T02:12:32.089Z,21.90
2018-07-28T02:17:35.706Z,21.80
2018-07-28T02:20:07.567Z,21.70
2018-07-28T02:22:38.798Z,21.70
2018-07-28T02:25:08.560Z,21.70
2018-07-28T02:27:40.017Z,21.60
2018-07-28T02:30:18.513Z,21.60
2018-07-28T02:32:50.931Z,21.50
2018-07-28T02:35:22.334Z,21.50
2018-07-28T02:37:57.021Z,21.50
2018-07-28T02:40:29.225Z,21.40
2018-07-28T02:42:59.865Z,21.40
2018-07-28T02:45:31.089Z,21.30
2018-07-28T02:48:01.370Z,21.30
2018-07-28T02:50:29.594Z,21.20
2018-07-28T02:53:09.415Z,21.20
2018-07-28T02:55:37.702Z,21.20
2018-07-28T02:58:08.230Z,21.10
2018-07-28T03:00:36.459Z,21.10
2018-07-28T03:03:13.918Z,21.00
2018-07-28T03:05:42.243Z,21.00
2018-07-28T03:08:16.559Z,21.00
2018-07-28T03:10:49.885Z,20.90
2018-07-28T03:13:21.046Z,20.90
2018-07-28T03:15:49.250Z,20.90
2018-07-28T03:18:23.465Z,20.80
2018-07-28T03:20:54.536Z,20.80
2018-07-28T03:23:22.851Z,20.70
2018-07-28T03:25:51.106Z,20.70
2018-07-28T03:28:24.234Z,20.70
2018-07-28T03:31:04.850Z,20.70
2018-07-28T03:33:36.044Z,20.60
2018-07-28T03:36:16.972Z,20.60
2018-07-28T03:38:45.201Z,20.60
2018-07-28T03:41:16.577Z,20.50
2018-07-28T03:43:52.752Z,20.50
2018-07-28T03:46:23.314Z,20.50
2018-07-28T03:49:04.213Z,20.50
2018-07-28T03:51:32.361Z,20.50
2018-07-28T03:54:08.473Z,20.50
2018-07-28T03:56:38.956Z,20.50
2018-07-28T03:59:09.305Z,20.50
2018-07-28T04:01:37.551Z,20.50
2018-07-28T04:04:06.096Z,20.50
2018-07-28T04:06:39.209Z,20.50
2018-07-28T04:09:08.608Z,20.50
2018-07-28T04:11:39.660Z,20.60
2018-07-28T04:14:08.290Z,20.60
2018-07-28T04:16:36.630Z,20.60
2018-07-28T04:19:07.349Z,20.60
2018-07-28T04:21:35.681Z,20.70
2018-07-28T04:24:03.805Z,20.70
2018-07-28T04:26:36.381Z,20.80
2018-07-28T04:29:08.738Z,20.80
2018-07-28T04:31:39.621Z,20.90
2018-07-28T04:34:07.775Z,21.00
2018-07-28T04:36:40.370Z,21.00
2018-07-28T04:39:15.188Z,21.10
2018-07-28T04:41:55.339Z,21.10
2018-07-28T04:44:26.121Z,21.20
2018-07-28T04:47:04.473Z,21.20
2018-07-28T04:49:35.367Z,21.30
2018-07-28T04:54:33.995Z,21.60
2018-07-28T04:57:12.254Z,21.70
2018-07-28T04:59:43.464Z,21.90
2018-07-28T05:02:11.660Z,22.10
2018-07-28T05:04:46.205Z,22.30
2018-07-28T05:07:18.709Z,22.50
2018-07-28T05:09:49.733Z,22.70
2018-07-28T05:12:28.089Z,22.80
2018-07-28T05:14:58.355Z,23.00
2018-07-28T05:17:26.598Z,23.10
2018-07-28T05:19:54.958Z,23.20
2018-07-28T05:22:29.627Z,23.30
2018-07-28T05:24:57.742Z,23.30
2018-07-28T05:27:35.700Z,23.30
2018-07-28T05:30:10.233Z,23.30
2018-07-28T05:32:38.375Z,23.30
2018-07-28T05:37:43.273Z,23.80
2018-07-28T05:40:23.143Z,24.10
2018-07-28T05:42:53.767Z,24.60
2018-07-28T05:45:27.890Z,25.10
2018-07-28T05:47:56.146Z,25.70
2018-07-28T05:50:24.331Z,26.20
2018-07-28T05:52:59.102Z,26.50
2018-07-28T05:55:27.334Z,26.60
2018-07-28T05:57:58.712Z,26.90
2018-07-28T06:00:38.558Z,27.30
2018-07-28T06:03:07.308Z,27.70
2018-07-28T06:05:38.465Z,28.00
2018-07-28T06:08:06.889Z,28.40
2018-07-28T06:10:40.183Z,28.80
2018-07-28T06:13:14.738Z,29.00
2018-07-28T06:15:45.740Z,29.20
2018-07-28T06:18:16.954Z,29.40
2018-07-28T06:20:45.171Z,29.70
2018-07-28T06:23:22.102Z,30.00
2018-07-28T06:25:50.523Z,30.40
2018-07-28T06:28:18.777Z,30.70
2018-07-28T06:30:46.974Z,30.40
2018-07-28T06:33:22.270Z,30.00
2018-07-28T06:35:53.353Z,29.80
2018-07-28T06:38:21.493Z,29.40
2018-07-28T06:40:54.518Z,29.20
2018-07-28T06:43:24.919Z,28.80
2018-07-28T06:45:53.474Z,28.80
2018-07-28T06:48:24.063Z,28.60
2018-07-28T06:51:04.550Z,28.50
2018-07-28T06:53:37.891Z,28.40
2018-07-28T06:58:47.467Z,28.30
2018-07-28T07:01:15.580Z,28.30
2018-07-28T07:03:50.290Z,28.20
2018-07-28T07:06:18.447Z,28.30
2018-07-28T07:08:53.829Z,28.20
2018-07-28T07:11:28.180Z,28.20
2018-07-28T07:14:10.177Z,28.10
2018-07-28T07:16:38.369Z,28.20
2018-07-28T07:19:09.309Z,28.60
2018-07-28T07:21:39.538Z,28.90
2018-07-28T07:24:14.409Z,29.30
2018-07-28T07:26:47.913Z,29.80
2018-07-28T07:29:27.675Z,29.70
2018-07-28T07:31:55.881Z,29.90
2018-07-28T07:34:29.079Z,30.30
2018-07-28T07:36:59.602Z,30.70
2018-07-28T07:39:44.702Z,31.30
2018-07-28T07:42:13.013Z,31.80
2018-07-28T07:44:41.207Z,32.40
2018-07-28T07:47:14.469Z,32.70
2018-07-28T07:49:45.667Z,33.00
2018-07-28T07:52:14.004Z,33.20
2018-07-28T07:54:42.209Z,33.30
2018-07-28T07:57:22.074Z,33.50
2018-07-28T07:59:50.210Z,33.30
2018-07-28T08:02:21.169Z,33.20
2018-07-28T08:04:51.384Z,33.30
2018-07-28T08:07:19.560Z,33.60
2018-07-28T08:09:54.218Z,33.70
2018-07-28T08:12:22.439Z,33.80
2018-07-28T08:14:58.496Z,33.80
2018-07-28T08:17:29.028Z,33.80
2018-07-28T08:20:07.563Z,33.80
2018-07-28T08:22:41.752Z,34.10
2018-07-28T08:25:10.468Z,34.30
2018-07-28T08:27:40.733Z,34.60
2018-07-28T08:30:08.915Z,34.30
2018-07-28T08:32:37.151Z,34.30
2018-07-28T08:35:06.226Z,34.30
2018-07-28T08:37:34.573Z,34.40
2018-07-28T08:40:02.918Z,34.60
2018-07-28T08:42:35.498Z,34.80
2018-07-28T08:45:04.173Z,35.00
2018-07-28T08:47:32.379Z,35.00
2018-07-28T08:50:00.588Z,35.10
2018-07-28T08:52:31.565Z,35.20
2018-07-28T08:54:59.977Z,35.20
2018-07-28T08:57:28.156Z,35.30
2018-07-28T09:00:07.960Z,35.30
2018-07-28T09:02:36.372Z,35.30
2018-07-28T09:05:11.324Z,35.20
2018-07-28T09:07:42.270Z,35.40
2018-07-28T09:10:10.796Z,35.40
2018-07-28T09:12:38.919Z,35.40
2018-07-28T09:15:11.327Z,35.60
2018-07-28T09:17:46.081Z,35.70
2018-07-28T09:20:14.293Z,36.00
2018-07-28T09:22:50.417Z,36.20
2018-07-28T09:25:21.575Z,36.40
2018-07-28T09:27:49.771Z,36.50
2018-07-28T09:30:22.988Z,36.50
2018-07-28T09:32:56.057Z,36.30
2018-07-28T09:35:24.322Z,36.30
2018-07-28T09:37:55.538Z,36.50
2018-07-28T09:40:26.607Z,36.70
2018-07-28T09:42:54.971Z,36.80
2018-07-28T09:45:23.246Z,36.50
2018-07-28T09:47:55.344Z,36.70
2018-07-28T09:50:35.199Z,36.70
2018-07-28T09:53:03.353Z,36.60
2018-07-28T09:55:38.013Z,36.60
2018-07-28T09:58:08.900Z,36.50
2018-07-28T10:00:42.811Z,36.20
2018-07-28T10:03:17.482Z,36.20
2018-07-28T10:05:45.966Z,36.60
2018-07-28T10:08:14.107Z,36.70
2018-07-28T10:10:49.767Z,37.00
2018-07-28T10:13:22.880Z,37.30
2018-07-28T10:15:55.516Z,37.00
2018-07-28T10:18:30.145Z,36.80
2018-07-28T10:21:01.104Z,36.60
2018-07-28T10:23:31.487Z,36.40
2018-07-28T10:25:59.818Z,36.20
2018-07-28T10:28:27.954Z,35.90
2018-07-28T10:31:06.278Z,35.60
2018-07-28T10:33:43.066Z,35.40
2018-07-28T10:36:11.260Z,35.10
2018-07-28T10:38:45.950Z,34.80
2018-07-28T10:41:14.100Z,34.30
2018-07-28T10:43:54.457Z,33.70
2018-07-28T10:46:27.011Z,33.20
2018-07-28T10:48:57.401Z,32.70
2018-07-28T10:51:30.647Z,32.40
2018-07-28T10:54:08.711Z,32.00
2018-07-28T10:56:36.859Z,31.80
2018-07-28T10:59:11.382Z,31.40
2018-07-28T11:01:45.949Z,30.90
2018-07-28T11:04:16.931Z,30.60
2018-07-28T11:06:56.709Z,30.40
2018-07-28T11:09:31.244Z,30.20
2018-07-28T11:12:03.690Z,30.10
2018-07-28T11:14:36.036Z,30.00
2018-07-28T11:17:10.746Z,30.00
2018-07-28T11:19:39.017Z,30.10
2018-07-28T11:22:13.629Z,30.10
2018-07-28T11:24:41.731Z,30.20
2018-07-28T11:27:16.184Z,30.30
2018-07-28T11:29:55.963Z,30.60
2018-07-28T11:32:37.611Z,31.20
2018-07-28T11:35:16.969Z,31.80
2018-07-28T11:38:04.891Z,32.20
2018-07-28T11:40:45.134Z,32.20
2018-07-28T11:43:26.854Z,32.10
2018-07-28T11:45:55.083Z,32.30
2018-07-28T11:48:27.607Z,32.40
2018-07-28T11:50:57.855Z,32.40
2018-07-28T11:53:32.448Z,32.40
2018-07-28T11:56:04.322Z,32.40
2018-07-28T11:58:33.013Z,32.40
2018-07-28T12:01:07.569Z,32.20
2018-07-28T12:03:48.049Z,31.90
2018-07-28T12:06:19.275Z,31.70
2018-07-28T12:08:49.513Z,31.40
2018-07-28T12:11:17.688Z,31.30
2018-07-28T12:13:57.487Z,31.20
2018-07-28T12:16:25.641Z,30.90
2018-07-28T12:19:00.247Z,30.70
2018-07-28T12:21:28.486Z,30.50
2018-07-28T12:24:02.988Z,30.30
2018-07-28T12:26:38.194Z,30.10
2018-07-28T12:29:11.714Z,29.90
2018-07-28T12:31:50.596Z,29.80
2018-07-28T12:34:18.763Z,29.60
2018-07-28T12:36:54.450Z,29.40
2018-07-28T12:39:22.577Z,29.10
2018-07-28T12:41:58.371Z,28.80
2018-07-28T12:44:26.518Z,28.40
2018-07-28T12:47:01.059Z,28.10
2018-07-28T12:49:35.669Z,27.80
2018-07-28T12:52:03.906Z,27.60
2018-07-28T12:54:39.625Z,27.30
2018-07-28T12:57:07.762Z,27.30
2018-07-28T12:59:44.333Z,27.30
2018-07-28T13:02:21.049Z,27.30
2018-07-28T13:04:49.488Z,27.30
2018-07-28T13:07:17.730Z,27.40
2018-07-28T13:09:50.096Z,27.50
2018-07-28T13:12:23.315Z,27.60
2018-07-28T13:15:03.286Z,27.70
2018-07-28T13:17:31.573Z,27.90
2018-07-28T13:20:14.308Z,28.00
2018-07-28T13:22:42.745Z,28.10
2018-07-28T13:25:10.944Z,28.20
2018-07-28T13:27:48.414Z,28.20
2018-07-28T13:30:19.455Z,28.40
2018-07-28T13:32:47.626Z,28.70
2018-07-28T13:35:15.921Z,28.90
2018-07-28T13:37:46.856Z,29.20
2018-07-28T13:40:17.374Z,29.40
2018-07-28T13:42:48.542Z,29.80
2018-07-28T13:45:16.682Z,30.10
2018-07-28T13:47:51.513Z,30.40
2018-07-28T13:50:19.676Z,30.70
2018-07-28T13:52:54.341Z,31.00
2018-07-28T13:55:22.463Z,31.30
2018-07-28T13:57:53.449Z,31.50
2018-07-28T14:00:21.600Z,31.70
2018-07-28T14:02:56.431Z,31.90
2018-07-28T14:05:24.693Z,32.20
2018-07-28T14:07:52.840Z,32.40
2018-07-28T14:10:27.338Z,32.70
2018-07-28T14:12:58.231Z,32.60
2018-07-28T14:15:26.638Z,32.50
2018-07-28T14:17:54.973Z,32.20
2018-07-28T14:20:27.962Z,32.00
2018-07-28T14:22:59.232Z,31.90
2018-07-28T14:25:27.398Z,31.80
2018-07-28T14:28:01.830Z,31.80
2018-07-28T14:30:36.476Z,31.80
2018-07-28T14:33:04.824Z,31.80
2018-07-28T14:35:40.199Z,32.00
2018-07-28T14:38:11.409Z,32.10
2018-07-28T14:40:45.741Z,32.10
2018-07-28T14:43:16.858Z,32.10
2018-07-28T14:45:45.118Z,32.10
2018-07-28T14:50:47.502Z,32.30
2018-07-28T14:53:15.875Z,32.20
2018-07-28T14:55:44.063Z,32.10
2018-07-28T14:58:18.813Z,32.10
2018-07-28T15:00:47.003Z,32.00
2018-07-28T15:03:21.534Z,32.00
2018-07-28T15:05:59.376Z,31.40
2018-07-28T15:08:29.982Z,32.00
2018-07-28T15:11:08.344Z,31.80
2018-07-28T15:13:44.483Z,31.70
2018-07-28T15:16:12.791Z,31.60
2018-07-28T15:18:43.770Z,31.50
2018-07-28T15:23:44.151Z,31.50
2018-07-28T15:26:15.137Z,31.50
2018-07-28T15:28:45.681Z,31.40
2018-07-28T15:31:16.088Z,31.30
2018-07-28T15:33:44.343Z,31.20
2018-07-28T15:36:12.889Z,31.10
2018-07-28T15:38:41.089Z,31.30
2018-07-28T15:41:12.066Z,31.50
2018-07-28T15:43:42.363Z,31.40
2018-07-28T15:46:10.979Z,31.30
2018-07-28T15:48:39.224Z,31.20
2018-07-28T15:51:07.468Z,31.10
2018-07-28T15:53:41.898Z,31.20
2018-07-28T15:56:18.658Z,31.30
2018-07-28T16:01:19.236Z,31.10
2018-07-28T16:03:53.883Z,31.00
2018-07-28T16:06:26.286Z,30.80
2018-07-28T16:08:58.893Z,30.70
2018-07-28T16:11:27.113Z,30.50
2018-07-28T16:14:01.733Z,30.40
2018-07-28T16:16:35.843Z,30.30
2018-07-28T16:19:09.405Z,30.10
2018-07-28T16:21:45.723Z,29.90
2018-07-28T16:24:18.184Z,29.70
2018-07-28T16:26:51.357Z,29.60
2018-07-28T16:29:21.665Z,29.70
2018-07-28T16:31:50.190Z,29.70
2018-07-28T16:34:18.727Z,29.90
2018-07-28T16:36:47.033Z,29.90
2018-07-28T16:39:15.166Z,29.90
2018-07-28T16:41:49.759Z,29.90
2018-07-28T16:44:24.265Z,29.90
2018-07-28T16:46:55.380Z,29.90
2018-07-28T16:49:28.596Z,29.80
2018-07-28T16:51:59.528Z,29.80
2018-07-28T16:54:32.638Z,29.60
2018-07-28T16:57:02.924Z,29.40
2018-07-28T16:59:31.404Z,29.20
2018-07-28T17:01:59.750Z,29.00
2018-07-28T17:04:28.071Z,28.80
2018-07-28T17:07:10.575Z,28.70
2018-07-28T17:09:38.873Z,28.60
2018-07-28T17:12:13.136Z,28.50
2018-07-28T17:14:44.110Z,28.40
2018-07-28T17:17:12.424Z,28.30
2018-07-28T17:19:43.705Z,28.30
2018-07-28T17:22:19.206Z,28.10
2018-07-28T17:24:53.684Z,28.00
2018-07-28T17:27:29.268Z,27.80
2018-07-28T17:29:57.706Z,27.20
2018-07-28T17:35:25.908Z,25.80
2018-07-28T17:38:04.321Z,25.10
2018-07-28T17:40:45.104Z,24.60
2018-07-28T17:43:17.563Z,24.00
2018-07-28T17:45:54.862Z,23.20
2018-07-28T17:48:29.497Z,22.50
2018-07-28T17:51:01.937Z,22.10
2018-07-28T17:53:34.412Z,21.90
2018-07-28T17:56:08.902Z,21.80
2018-07-28T17:58:37.466Z,21.70
2018-07-28T18:01:05.700Z,21.50
2018-07-28T18:03:46.627Z,21.40
2018-07-28T18:08:49.081Z,21.20
2018-07-28T18:11:23.736Z,21.20
2018-07-28T18:13:51.854Z,21.10
2018-07-28T18:16:27.936Z,21.10
2018-07-28T18:18:58.232Z,21.10
2018-07-28T18:21:27.048Z,21.20
2018-07-28T18:24:06.575Z,21.30
2018-07-28T18:26:37.513Z,21.30
2018-07-28T18:29:06.231Z,21.30
2018-07-28T18:31:34.459Z,21.20
2018-07-28T18:34:02.732Z,21.20
2018-07-28T18:36:33.088Z,21.20
2018-07-28T18:39:12.213Z,21.10
2018-07-28T18:41:42.675Z,21.00
2018-07-28T18:44:14.802Z,20.90
2018-07-28T18:46:42.973Z,20.90
2018-07-28T18:49:23.236Z,20.90
2018-07-28T18:51:57.852Z,20.80
2018-07-28T18:54:31.274Z,20.70
2018-07-28T18:59:37.338Z,20.50
2018-07-28T19:02:08.338Z,20.40
2018-07-28T19:04:47.129Z,20.40
2018-07-28T19:07:19.659Z,20.40
2018-07-28T19:09:51.279Z,20.40
2018-07-28T19:12:36.741Z,20.40
2018-07-28T19:15:09.361Z,20.50
2018-07-28T19:17:47.935Z,20.40
2018-07-28T19:20:27.386Z,20.40
2018-07-28T19:23:05.566Z,20.40
2018-07-28T19:25:36.179Z,20.30
2018-07-28T19:28:20.272Z,18.80
2018-07-28T19:30:48.731Z,20.10
2018-07-28T19:33:16.871Z,20.00
2018-07-28T19:35:53.667Z,20.00
2018-07-28T19:38:22.073Z,19.90
2018-07-28T19:40:50.334Z,19.90
2018-07-28T19:43:23.414Z,19.80
2018-07-28T19:45:54.774Z,19.80
2018-07-28T19:48:23.250Z,19.90
2018-07-28T19:50:51.698Z,19.80
2018-07-28T19:53:20.170Z,19.80
2018-07-28T19:55:48.535Z,19.80
2018-07-28T19:58:16.716Z,19.90
2018-07-28T20:00:51.466Z,19.90
2018-07-28T20:03:19.668Z,19.90
2018-07-28T20:05:52.688Z,19.90
2018-07-28T20:08:23.248Z,19.90
2018-07-28T20:11:04.641Z,19.80
2018-07-28T20:13:38.073Z,19.90
2018-07-28T20:16:10.884Z,19.80
2018-07-28T20:18:44.660Z,19.80
2018-07-28T20:21:12.908Z,19.80
2018-07-28T20:23:43.896Z,19.80
2018-07-28T20:26:16.441Z,19.80
2018-07-28T20:28:50.100Z,19.90
2018-07-28T20:31:21.069Z,19.90
2018-07-28T20:33:49.199Z,19.90
2018-07-28T20:36:22.411Z,19.90
2018-07-28T20:38:55.019Z,19.90
2018-07-28T20:41:26.111Z,19.90
2018-07-28T20:43:59.706Z,19.80
2018-07-28T20:46:31.909Z,19.80
2018-07-28T20:49:00.130Z,19.80
2018-07-28T20:54:06.002Z,19.70
2018-07-28T20:56:38.422Z,19.70
2018-07-28T20:59:15.796Z,19.60
2018-07-28T21:01:48.801Z,19.60
2018-07-28T21:04:20.556Z,19.60
2018-07-28T21:06:51.765Z,19.60
2018-07-28T21:09:31.674Z,19.50
2018-07-28T21:12:02.789Z,19.50
2018-07-28T21:14:36.373Z,19.40
2018-07-28T21:17:12.917Z,19.30
2018-07-28T21:19:49.623Z,19.30
2018-07-28T21:22:17.817Z,19.20
2018-07-28T21:24:49.185Z,19.10
2018-07-28T21:27:23.522Z,19.00
2018-07-28T21:30:05.461Z,18.90
2018-07-28T21:32:33.639Z,18.90
2018-07-28T21:35:08.293Z,18.80
2018-07-28T21:37:43.432Z,18.80
2018-07-28T21:40:20.018Z,18.70
2018-07-28T21:45:25.809Z,18.60
2018-07-28T21:48:01.506Z,18.50
2018-07-28T21:50:29.801Z,18.50
2018-07-28T21:53:01.025Z,18.40
2018-07-28T21:55:35.998Z,18.40
2018-07-28T21:58:04.629Z,18.40
2018-07-28T22:01:36.855Z,18.30
2018-07-28T22:04:15.723Z,18.30
2018-07-28T22:06:47.664Z,18.30
2018-07-28T22:09:24.585Z,18.30
2018-07-28T22:11:53.257Z,18.30
2018-07-28T22:14:23.577Z,18.40
2018-07-28T22:17:06.672Z,18.40
2018-07-28T22:19:40.076Z,18.40
2018-07-28T22:22:15.617Z,18.30
2018-07-28T22:24:56.363Z,18.30
2018-07-28T22:27:26.467Z,18.30
2018-07-28T22:29:57.101Z,18.20
2018-07-28T22:32:25.330Z,18.20
2018-07-28T22:34:58.453Z,18.10
2018-07-28T22:37:27.008Z,18.00
2018-07-28T22:40:00.542Z,18.00
2018-07-28T22:42:43.844Z,17.90
2018-07-28T22:45:16.934Z,17.90
2018-07-28T22:47:45.841Z,17.80
2018-07-28T22:50:18.313Z,17.30
2018-07-28T22:52:51.565Z,17.70
2018-07-28T22:55:24.458Z,17.60
2018-07-28T22:57:56.949Z,17.50
2018-07-28T23:00:31.580Z,17.50
2018-07-28T23:03:08.581Z,17.40
2018-07-28T23:05:42.919Z,17.40
2018-07-28T23:08:18.369Z,17.30
2018-07-28T23:10:49.551Z,17.30
2018-07-28T23:13:18.074Z,17.30
2018-07-28T23:15:46.410Z,17.20
2018-07-28T23:18:15.209Z,17.10
2018-07-28T23:20:46.570Z,17.10
2018-07-28T23:23:16.921Z,17.00
2018-07-28T23:25:45.349Z,17.00
2018-07-28T23:28:14.139Z,16.90
2018-07-28T23:30:45.501Z,16.90
2018-07-28T23:33:15.702Z,16.80
2018-07-28T23:35:50.685Z,16.80
2018-07-28T23:38:20.974Z,16.80
2018-07-28T23:40:51.295Z,16.80
2018-07-28T23:43:19.656Z,16.70
2018-07-28T23:45:47.875Z,16.70
2018-07-28T23:48:24.482Z,16.70
2018-07-28T23:51:00.163Z,16.60
2018-07-28T23:53:31.014Z,16.60
2018-07-28T23:56:07.515Z,16.50
2018-07-28T23:58:44.913Z,16.50
